sensor_id;sensor_type;location;lat;lon;timestamp;P1;durP1;ratioP1;P2;durP2;ratioP2
78205;SDS011;67480;48.920;12.880;2023-12-28T00:00:19;3.05;;;2.10;;
78205;SDS011;67480;48.920;12.880;2023-12-28T00:02:47;1.65;;;1.48;;
78205;SDS011;67480;48.920;12.880;2023-12-28T00:05:15;2.70;;;1.85;;
78205;SDS011;67480;48.920;12.880;2023-12-28T00:07:41;3.10;;;1.80;;
78205;SDS011;67480;48.920;12.880;2023-12-28T00:13:10;1.70;;;1.60;;
78205;SDS011;67480;48.920;12.880;2023-12-28T00:15:36;4.07;;;1.95;;
78205;SDS011;67480;48.920;12.880;2023-12-28T00:18:08;2.53;;;1.55;;
78205;SDS011;67480;48.920;12.880;2023-12-28T00:20:38;1.98;;;1.70;;
78205;SDS011;67480;48.920;12.880;2023-12-28T00:23:04;2.88;;;1.85;;
78205;SDS011;67480;48.920;12.880;2023-12-28T00:25:31;1.80;;;1.58;;
78205;SDS011;67480;48.920;12.880;2023-12-28T00:28:01;1.85;;;1.60;;
78205;SDS011;67480;48.920;12.880;2023-12-28T00:30:35;1.67;;;1.58;;
78205;SDS011;67480;48.920;12.880;2023-12-28T00:33:04;2.13;;;1.70;;
78205;SDS011;67480;48.920;12.880;2023-12-28T00:35:31;1.42;;;1.33;;
78205;SDS011;67480;48.920;12.880;2023-12-28T00:38:00;2.08;;;1.60;;
78205;SDS011;67480;48.920;12.880;2023-12-28T00:40:37;2.28;;;1.92;;
78205;SDS011;67480;48.920;12.880;2023-12-28T00:43:26;2.38;;;1.90;;
78205;SDS011;67480;48.920;12.880;2023-12-28T00:46:17;1.73;;;1.60;;
78205;SDS011;67480;48.920;12.880;2023-12-28T00:48:49;2.22;;;2.03;;
78205;SDS011;67480;48.920;12.880;2023-12-28T00:51:17;1.80;;;1.67;;
78205;SDS011;67480;48.920;12.880;2023-12-28T00:53:51;1.98;;;1.77;;
78205;SDS011;67480;48.920;12.880;2023-12-28T00:56:19;2.25;;;1.70;;
78205;SDS011;67480;48.920;12.880;2023-12-28T00:58:46;2.33;;;1.90;;
78205;SDS011;67480;48.920;12.880;2023-12-28T01:01:15;2.20;;;1.65;;
78205;SDS011;67480;48.920;12.880;2023-12-28T01:03:41;2.20;;;1.90;;
78205;SDS011;67480;48.920;12.880;2023-12-28T01:06:24;2.17;;;1.98;;
78205;SDS011;67480;48.920;12.880;2023-12-28T01:09:15;3.17;;;2.33;;
78205;SDS011;67480;48.920;12.880;2023-12-28T01:11:41;2.15;;;1.88;;
78205;SDS011;67480;48.920;12.880;2023-12-28T01:14:06;2.30;;;1.60;;
78205;SDS011;67480;48.920;12.880;2023-12-28T01:16:32;1.70;;;1.60;;
78205;SDS011;67480;48.920;12.880;2023-12-28T01:22:29;1.98;;;1.83;;
78205;SDS011;67480;48.920;12.880;2023-12-28T01:24:57;1.70;;;1.60;;
78205;SDS011;67480;48.920;12.880;2023-12-28T01:27:24;2.22;;;2.03;;
78205;SDS011;67480;48.920;12.880;2023-12-28T01:30:02;1.48;;;1.38;;
78205;SDS011;67480;48.920;12.880;2023-12-28T01:32:52;2.10;;;1.60;;
78205;SDS011;67480;48.920;12.880;2023-12-28T01:35:20;2.70;;;1.58;;
78205;SDS011;67480;48.920;12.880;2023-12-28T01:37:45;2.35;;;1.80;;
78205;SDS011;67480;48.920;12.880;2023-12-28T01:40:11;2.47;;;1.60;;
78205;SDS011;67480;48.920;12.880;2023-12-28T01:42:37;1.83;;;1.40;;
78205;SDS011;67480;48.920;12.880;2023-12-28T01:45:03;1.75;;;1.65;;
78205;SDS011;67480;48.920;12.880;2023-12-28T01:47:28;3.28;;;2.95;;
78205;SDS011;67480;48.920;12.880;2023-12-28T01:49:55;5.20;;;3.60;;
78205;SDS011;67480;48.920;12.880;2023-12-28T01:52:21;2.15;;;1.90;;
78205;SDS011;67480;48.920;12.880;2023-12-28T01:54:47;2.30;;;1.83;;
78205;SDS011;67480;48.920;12.880;2023-12-28T01:57:14;2.00;;;1.80;;
78205;SDS011;67480;48.920;12.880;2023-12-28T01:59:41;1.70;;;1.60;;
78205;SDS011;67480;48.920;12.880;2023-12-28T02:02:07;2.05;;;1.70;;
78205;SDS011;67480;48.920;12.880;2023-12-28T02:04:33;2.45;;;1.90;;
78205;SDS011;67480;48.920;12.880;2023-12-28T02:07:00;2.25;;;1.85;;
78205;SDS011;67480;48.920;12.880;2023-12-28T02:09:26;1.85;;;1.42;;
78205;SDS011;67480;48.920;12.880;2023-12-28T02:11:52;2.13;;;2.00;;
78205;SDS011;67480;48.920;12.880;2023-12-28T02:14:19;3.88;;;2.20;;
78205;SDS011;67480;48.920;12.880;2023-12-28T02:16:53;2.22;;;1.77;;
78205;SDS011;67480;48.920;12.880;2023-12-28T02:19:39;4.53;;;2.40;;
78205;SDS011;67480;48.920;12.880;2023-12-28T02:22:09;2.58;;;2.10;;
78205;SDS011;67480;48.920;12.880;2023-12-28T02:27:24;1.70;;;1.60;;
78205;SDS011;67480;48.920;12.880;2023-12-28T02:29:50;2.50;;;2.00;;
78205;SDS011;67480;48.920;12.880;2023-12-28T02:32:16;2.30;;;2.10;;
78205;SDS011;67480;48.920;12.880;2023-12-28T02:34:47;4.45;;;2.80;;
78205;SDS011;67480;48.920;12.880;2023-12-28T02:37:19;4.43;;;3.65;;
78205;SDS011;67480;48.920;12.880;2023-12-28T02:39:46;4.53;;;3.33;;
78205;SDS011;67480;48.920;12.880;2023-12-28T02:42:14;4.88;;;3.40;;
78205;SDS011;67480;48.920;12.880;2023-12-28T02:44:40;4.38;;;3.08;;
78205;SDS011;67480;48.920;12.880;2023-12-28T02:47:05;4.72;;;2.50;;
78205;SDS011;67480;48.920;12.880;2023-12-28T02:49:31;2.63;;;1.95;;
78205;SDS011;67480;48.920;12.880;2023-12-28T02:52:03;2.65;;;2.42;;
78205;SDS011;67480;48.920;12.880;2023-12-28T02:54:32;3.05;;;2.35;;
78205;SDS011;67480;48.920;12.880;2023-12-28T02:56:58;3.20;;;2.30;;
78205;SDS011;67480;48.920;12.880;2023-12-28T02:59:23;2.63;;;2.20;;
78205;SDS011;67480;48.920;12.880;2023-12-28T03:01:49;2.85;;;2.00;;
78205;SDS011;67480;48.920;12.880;2023-12-28T03:04:21;2.63;;;2.42;;
78205;SDS011;67480;48.920;12.880;2023-12-28T03:06:57;2.80;;;2.53;;
78205;SDS011;67480;48.920;12.880;2023-12-28T03:09:28;2.50;;;2.30;;
78205;SDS011;67480;48.920;12.880;2023-12-28T03:11:55;2.63;;;2.00;;
78205;SDS011;67480;48.920;12.880;2023-12-28T03:14:21;3.28;;;2.28;;
78205;SDS011;67480;48.920;12.880;2023-12-28T03:16:47;2.45;;;2.25;;
78205;SDS011;67480;48.920;12.880;2023-12-28T03:19:14;2.70;;;2.40;;
78205;SDS011;67480;48.920;12.880;2023-12-28T03:21:43;2.97;;;2.38;;
78205;SDS011;67480;48.920;12.880;2023-12-28T03:24:14;3.88;;;2.03;;
78205;SDS011;67480;48.920;12.880;2023-12-28T03:26:42;3.08;;;2.50;;
78205;SDS011;67480;48.920;12.880;2023-12-28T03:29:07;3.90;;;2.55;;
78205;SDS011;67480;48.920;12.880;2023-12-28T03:31:38;3.45;;;2.50;;
78205;SDS011;67480;48.920;12.880;2023-12-28T03:34:07;3.40;;;2.75;;
78205;SDS011;67480;48.920;12.880;2023-12-28T03:36:36;3.08;;;2.30;;
78205;SDS011;67480;48.920;12.880;2023-12-28T03:39:07;4.80;;;2.42;;
78205;SDS011;67480;48.920;12.880;2023-12-28T03:41:34;4.35;;;2.80;;
78205;SDS011;67480;48.920;12.880;2023-12-28T03:44:04;3.38;;;2.85;;
78205;SDS011;67480;48.920;12.880;2023-12-28T03:46:31;4.97;;;2.90;;
78205;SDS011;67480;48.920;12.880;2023-12-28T03:48:58;3.92;;;2.28;;
78205;SDS011;67480;48.920;12.880;2023-12-28T03:51:24;3.42;;;2.45;;
78205;SDS011;67480;48.920;12.880;2023-12-28T03:53:51;2.70;;;2.50;;
78205;SDS011;67480;48.920;12.880;2023-12-28T03:56:24;2.75;;;2.53;;
78205;SDS011;67480;48.920;12.880;2023-12-28T03:58:52;3.53;;;2.50;;
78205;SDS011;67480;48.920;12.880;2023-12-28T04:01:19;5.18;;;3.03;;
78205;SDS011;67480;48.920;12.880;2023-12-28T04:03:46;3.92;;;3.08;;
78205;SDS011;67480;48.920;12.880;2023-12-28T04:06:12;2.88;;;2.60;;
78205;SDS011;67480;48.920;12.880;2023-12-28T04:08:41;4.75;;;3.20;;
78205;SDS011;67480;48.920;12.880;2023-12-28T04:11:09;3.88;;;2.92;;
78205;SDS011;67480;48.920;12.880;2023-12-28T04:13:36;4.97;;;2.58;;
78205;SDS011;67480;48.920;12.880;2023-12-28T04:16:02;3.47;;;2.85;;
78205;SDS011;67480;48.920;12.880;2023-12-28T04:18:30;3.50;;;3.20;;
78205;SDS011;67480;48.920;12.880;2023-12-28T04:20:56;3.90;;;2.78;;
78205;SDS011;67480;48.920;12.880;2023-12-28T04:23:25;4.20;;;3.30;;
78205;SDS011;67480;48.920;12.880;2023-12-28T04:25:50;3.85;;;2.72;;
78205;SDS011;67480;48.920;12.880;2023-12-28T04:28:16;3.67;;;2.72;;
78205;SDS011;67480;48.920;12.880;2023-12-28T04:30:41;3.67;;;3.10;;
78205;SDS011;67480;48.920;12.880;2023-12-28T04:33:07;3.58;;;3.20;;
78205;SDS011;67480;48.920;12.880;2023-12-28T04:35:38;4.10;;;3.10;;
78205;SDS011;67480;48.920;12.880;2023-12-28T04:38:08;4.47;;;3.03;;
78205;SDS011;67480;48.920;12.880;2023-12-28T04:40:33;4.63;;;3.40;;
78205;SDS011;67480;48.920;12.880;2023-12-28T04:43:03;4.88;;;3.47;;
78205;SDS011;67480;48.920;12.880;2023-12-28T04:45:28;4.97;;;3.63;;
78205;SDS011;67480;48.920;12.880;2023-12-28T04:47:54;4.50;;;3.28;;
78205;SDS011;67480;48.920;12.880;2023-12-28T04:50:20;4.43;;;3.08;;
78205;SDS011;67480;48.920;12.880;2023-12-28T04:52:45;3.55;;;2.95;;
78205;SDS011;67480;48.920;12.880;2023-12-28T04:55:12;5.20;;;3.55;;
78205;SDS011;67480;48.920;12.880;2023-12-28T04:57:40;7.60;;;3.22;;
78205;SDS011;67480;48.920;12.880;2023-12-28T05:00:06;5.88;;;3.40;;
78205;SDS011;67480;48.920;12.880;2023-12-28T05:02:33;4.30;;;3.42;;
78205;SDS011;67480;48.920;12.880;2023-12-28T05:05:00;5.68;;;3.70;;
78205;SDS011;67480;48.920;12.880;2023-12-28T05:07:26;4.90;;;4.10;;
78205;SDS011;67480;48.920;12.880;2023-12-28T05:09:51;5.43;;;3.53;;
78205;SDS011;67480;48.920;12.880;2023-12-28T05:12:18;5.10;;;3.10;;
78205;SDS011;67480;48.920;12.880;2023-12-28T05:14:44;5.43;;;3.30;;
78205;SDS011;67480;48.920;12.880;2023-12-28T05:17:12;5.55;;;3.17;;
78205;SDS011;67480;48.920;12.880;2023-12-28T05:19:38;4.22;;;3.60;;
78205;SDS011;67480;48.920;12.880;2023-12-28T05:22:03;3.55;;;2.90;;
78205;SDS011;67480;48.920;12.880;2023-12-28T05:24:32;4.25;;;3.10;;
78205;SDS011;67480;48.920;12.880;2023-12-28T05:26:59;5.22;;;3.58;;
78205;SDS011;67480;48.920;12.880;2023-12-28T05:29:25;3.83;;;3.30;;
78205;SDS011;67480;48.920;12.880;2023-12-28T05:31:51;3.88;;;3.20;;
78205;SDS011;67480;48.920;12.880;2023-12-28T05:34:17;5.03;;;3.53;;
78205;SDS011;67480;48.920;12.880;2023-12-28T05:40:10;3.10;;;2.83;;
78205;SDS011;67480;48.920;12.880;2023-12-28T05:42:36;5.22;;;3.35;;
78205;SDS011;67480;48.920;12.880;2023-12-28T05:45:02;3.70;;;3.25;;
78205;SDS011;67480;48.920;12.880;2023-12-28T05:47:28;4.40;;;3.22;;
78205;SDS011;67480;48.920;12.880;2023-12-28T05:49:54;3.55;;;3.22;;
78205;SDS011;67480;48.920;12.880;2023-12-28T05:52:20;4.35;;;3.65;;
78205;SDS011;67480;48.920;12.880;2023-12-28T05:54:47;4.43;;;3.20;;
78205;SDS011;67480;48.920;12.880;2023-12-28T05:57:15;5.53;;;3.72;;
78205;SDS011;67480;48.920;12.880;2023-12-28T05:59:41;5.00;;;3.65;;
78205;SDS011;67480;48.920;12.880;2023-12-28T06:02:06;3.80;;;3.42;;
78205;SDS011;67480;48.920;12.880;2023-12-28T06:04:32;6.20;;;3.95;;
78205;SDS011;67480;48.920;12.880;2023-12-28T06:06:58;7.03;;;5.30;;
78205;SDS011;67480;48.920;12.880;2023-12-28T06:09:24;3.72;;;3.40;;
78205;SDS011;67480;48.920;12.880;2023-12-28T06:11:52;4.53;;;3.85;;
78205;SDS011;67480;48.920;12.880;2023-12-28T06:14:19;5.78;;;3.97;;
78205;SDS011;67480;48.920;12.880;2023-12-28T06:16:45;5.70;;;4.53;;
78205;SDS011;67480;48.920;12.880;2023-12-28T06:19:11;5.60;;;4.05;;
78205;SDS011;67480;48.920;12.880;2023-12-28T06:21:37;4.43;;;4.00;;
78205;SDS011;67480;48.920;12.880;2023-12-28T06:24:03;5.03;;;4.25;;
78205;SDS011;67480;48.920;12.880;2023-12-28T06:26:30;4.25;;;3.67;;
78205;SDS011;67480;48.920;12.880;2023-12-28T06:28:55;5.28;;;4.55;;
78205;SDS011;67480;48.920;12.880;2023-12-28T06:31:22;5.60;;;4.50;;
78205;SDS011;67480;48.920;12.880;2023-12-28T06:33:49;6.00;;;4.80;;
78205;SDS011;67480;48.920;12.880;2023-12-28T06:36:17;7.18;;;4.40;;
78205;SDS011;67480;48.920;12.880;2023-12-28T06:38:43;5.32;;;4.38;;
78205;SDS011;67480;48.920;12.880;2023-12-28T06:41:10;4.95;;;4.20;;
78205;SDS011;67480;48.920;12.880;2023-12-28T06:43:37;6.65;;;4.72;;
78205;SDS011;67480;48.920;12.880;2023-12-28T06:46:02;8.88;;;6.25;;
78205;SDS011;67480;48.920;12.880;2023-12-28T06:48:28;4.63;;;4.10;;
78205;SDS011;67480;48.920;12.880;2023-12-28T06:50:55;6.13;;;5.53;;
78205;SDS011;67480;48.920;12.880;2023-12-28T06:53:21;5.25;;;4.20;;
78205;SDS011;67480;48.920;12.880;2023-12-28T06:55:54;4.95;;;4.45;;
78205;SDS011;67480;48.920;12.880;2023-12-28T06:58:20;4.13;;;3.72;;
78205;SDS011;67480;48.920;12.880;2023-12-28T07:00:46;5.30;;;4.65;;
78205;SDS011;67480;48.920;12.880;2023-12-28T07:03:14;7.00;;;5.20;;
78205;SDS011;67480;48.920;12.880;2023-12-28T07:05:40;6.40;;;5.05;;
78205;SDS011;67480;48.920;12.880;2023-12-28T07:08:06;6.78;;;5.03;;
78205;SDS011;67480;48.920;12.880;2023-12-28T07:10:33;7.03;;;6.32;;
78205;SDS011;67480;48.920;12.880;2023-12-28T07:13:01;9.18;;;6.90;;
78205;SDS011;67480;48.920;12.880;2023-12-28T07:15:34;7.82;;;6.20;;
78205;SDS011;67480;48.920;12.880;2023-12-28T07:18:01;5.32;;;3.92;;
78205;SDS011;67480;48.920;12.880;2023-12-28T07:20:27;5.85;;;4.53;;
78205;SDS011;67480;48.920;12.880;2023-12-28T07:22:53;5.35;;;4.68;;
78205;SDS011;67480;48.920;12.880;2023-12-28T07:25:18;5.55;;;5.05;;
78205;SDS011;67480;48.920;12.880;2023-12-28T07:27:45;4.15;;;3.75;;
78205;SDS011;67480;48.920;12.880;2023-12-28T07:30:11;4.13;;;3.72;;
78205;SDS011;67480;48.920;12.880;2023-12-28T07:32:39;5.97;;;4.07;;
78205;SDS011;67480;48.920;12.880;2023-12-28T07:35:08;5.00;;;4.20;;
78205;SDS011;67480;48.920;12.880;2023-12-28T07:37:34;4.18;;;3.67;;
78205;SDS011;67480;48.920;12.880;2023-12-28T07:40:00;4.75;;;3.83;;
78205;SDS011;67480;48.920;12.880;2023-12-28T07:42:30;4.45;;;3.72;;
78205;SDS011;67480;48.920;12.880;2023-12-28T07:45:00;5.35;;;3.63;;
78205;SDS011;67480;48.920;12.880;2023-12-28T07:47:31;6.10;;;4.45;;
78205;SDS011;67480;48.920;12.880;2023-12-28T07:49:58;5.78;;;5.18;;
78205;SDS011;67480;48.920;12.880;2023-12-28T07:52:25;4.97;;;4.05;;
78205;SDS011;67480;48.920;12.880;2023-12-28T07:54:51;5.57;;;4.22;;
78205;SDS011;67480;48.920;12.880;2023-12-28T07:57:18;4.88;;;4.05;;
78205;SDS011;67480;48.920;12.880;2023-12-28T07:59:43;5.55;;;3.83;;
78205;SDS011;67480;48.920;12.880;2023-12-28T08:02:09;5.97;;;4.13;;
78205;SDS011;67480;48.920;12.880;2023-12-28T08:04:36;4.30;;;3.40;;
78205;SDS011;67480;48.920;12.880;2023-12-28T08:07:03;5.45;;;4.20;;
78205;SDS011;67480;48.920;12.880;2023-12-28T08:09:33;5.65;;;4.22;;
78205;SDS011;67480;48.920;12.880;2023-12-28T08:12:00;4.68;;;4.28;;
78205;SDS011;67480;48.920;12.880;2023-12-28T08:14:28;5.03;;;3.88;;
78205;SDS011;67480;48.920;12.880;2023-12-28T08:16:55;5.50;;;4.20;;
78205;SDS011;67480;48.920;12.880;2023-12-28T08:19:22;4.47;;;4.05;;
78205;SDS011;67480;48.920;12.880;2023-12-28T08:21:50;4.60;;;4.03;;
78205;SDS011;67480;48.920;12.880;2023-12-28T08:24:17;5.07;;;3.97;;
78205;SDS011;67480;48.920;12.880;2023-12-28T08:26:43;4.40;;;3.85;;
78205;SDS011;67480;48.920;12.880;2023-12-28T08:29:09;6.70;;;4.32;;
78205;SDS011;67480;48.920;12.880;2023-12-28T08:31:36;4.13;;;3.75;;
78205;SDS011;67480;48.920;12.880;2023-12-28T08:34:05;4.50;;;4.10;;
78205;SDS011;67480;48.920;12.880;2023-12-28T08:36:31;4.63;;;3.85;;
78205;SDS011;67480;48.920;12.880;2023-12-28T08:38:58;5.72;;;4.57;;
78205;SDS011;67480;48.920;12.880;2023-12-28T08:41:29;5.00;;;4.13;;
78205;SDS011;67480;48.920;12.880;2023-12-28T08:43:58;5.65;;;4.93;;
78205;SDS011;67480;48.920;12.880;2023-12-28T08:46:23;6.70;;;6.00;;
78205;SDS011;67480;48.920;12.880;2023-12-28T08:48:51;7.00;;;6.25;;
78205;SDS011;67480;48.920;12.880;2023-12-28T08:51:17;9.90;;;7.40;;
78205;SDS011;67480;48.920;12.880;2023-12-28T08:53:43;6.00;;;4.88;;
78205;SDS011;67480;48.920;12.880;2023-12-28T08:56:18;6.28;;;5.60;;
78205;SDS011;67480;48.920;12.880;2023-12-28T08:58:45;7.03;;;4.93;;
78205;SDS011;67480;48.920;12.880;2023-12-28T09:01:20;8.68;;;6.35;;
78205;SDS011;67480;48.920;12.880;2023-12-28T09:03:47;7.25;;;5.18;;
78205;SDS011;67480;48.920;12.880;2023-12-28T09:06:16;7.80;;;5.35;;
78205;SDS011;67480;48.920;12.880;2023-12-28T09:08:43;12.57;;;8.73;;
78205;SDS011;67480;48.920;12.880;2023-12-28T09:11:10;6.90;;;5.90;;
78205;SDS011;67480;48.920;12.880;2023-12-28T09:13:39;7.00;;;6.13;;
78205;SDS011;67480;48.920;12.880;2023-12-28T09:16:05;10.60;;;6.20;;
78205;SDS011;67480;48.920;12.880;2023-12-28T09:18:32;8.85;;;6.30;;
78205;SDS011;67480;48.920;12.880;2023-12-28T09:20:58;10.70;;;7.60;;
78205;SDS011;67480;48.920;12.880;2023-12-28T09:23:23;15.20;;;9.27;;
78205;SDS011;67480;48.920;12.880;2023-12-28T09:25:49;19.30;;;11.52;;
78205;SDS011;67480;48.920;12.880;2023-12-28T09:28:14;20.40;;;12.63;;
78205;SDS011;67480;48.920;12.880;2023-12-28T09:30:40;18.55;;;10.60;;
78205;SDS011;67480;48.920;12.880;2023-12-28T09:33:05;15.98;;;10.63;;
78205;SDS011;67480;48.920;12.880;2023-12-28T09:35:31;18.73;;;11.82;;
78205;SDS011;67480;48.920;12.880;2023-12-28T09:37:58;16.35;;;10.63;;
78205;SDS011;67480;48.920;12.880;2023-12-28T09:40:24;13.18;;;9.38;;
78205;SDS011;67480;48.920;12.880;2023-12-28T09:45:25;13.13;;;9.50;;
78205;SDS011;67480;48.920;12.880;2023-12-28T09:47:50;15.10;;;9.32;;
78205;SDS011;67480;48.920;12.880;2023-12-28T09:50:17;12.20;;;7.90;;
78205;SDS011;67480;48.920;12.880;2023-12-28T09:52:43;18.25;;;9.50;;
78205;SDS011;67480;48.920;12.880;2023-12-28T09:55:08;11.77;;;8.40;;
78205;SDS011;67480;48.920;12.880;2023-12-28T09:57:34;11.30;;;8.48;;
78205;SDS011;67480;48.920;12.880;2023-12-28T10:00:02;11.80;;;8.95;;
78205;SDS011;67480;48.920;12.880;2023-12-28T10:02:28;13.68;;;9.15;;
78205;SDS011;67480;48.920;12.880;2023-12-28T10:04:55;13.50;;;8.98;;
78205;SDS011;67480;48.920;12.880;2023-12-28T10:07:20;11.50;;;8.48;;
78205;SDS011;67480;48.920;12.880;2023-12-28T10:09:46;10.45;;;8.15;;
78205;SDS011;67480;48.920;12.880;2023-12-28T10:12:11;12.10;;;8.13;;
78205;SDS011;67480;48.920;12.880;2023-12-28T10:14:37;11.45;;;8.43;;
78205;SDS011;67480;48.920;12.880;2023-12-28T10:17:02;10.05;;;7.90;;
78205;SDS011;67480;48.920;12.880;2023-12-28T10:19:27;10.75;;;7.70;;
78205;SDS011;67480;48.920;12.880;2023-12-28T10:21:53;10.07;;;8.52;;
78205;SDS011;67480;48.920;12.880;2023-12-28T10:24:18;12.35;;;8.35;;
78205;SDS011;67480;48.920;12.880;2023-12-28T10:26:46;12.02;;;9.55;;
78205;SDS011;67480;48.920;12.880;2023-12-28T10:29:11;11.65;;;9.60;;
78205;SDS011;67480;48.920;12.880;2023-12-28T10:31:37;12.20;;;9.23;;
78205;SDS011;67480;48.920;12.880;2023-12-28T10:34:04;11.30;;;8.60;;
78205;SDS011;67480;48.920;12.880;2023-12-28T10:36:29;11.43;;;8.65;;
78205;SDS011;67480;48.920;12.880;2023-12-28T10:38:55;10.60;;;8.60;;
78205;SDS011;67480;48.920;12.880;2023-12-28T10:41:24;10.25;;;7.90;;
78205;SDS011;67480;48.920;12.880;2023-12-28T10:44:03;9.85;;;7.32;;
78205;SDS011;67480;48.920;12.880;2023-12-28T10:46:33;12.00;;;8.40;;
78205;SDS011;67480;48.920;12.880;2023-12-28T10:49:09;7.75;;;6.95;;
78205;SDS011;67480;48.920;12.880;2023-12-28T10:51:37;8.68;;;7.45;;
78205;SDS011;67480;48.920;12.880;2023-12-28T10:57:05;9.15;;;7.85;;
78205;SDS011;67480;48.920;12.880;2023-12-28T11:04:44;10.27;;;7.80;;
78205;SDS011;67480;48.920;12.880;2023-12-28T11:07:13;9.77;;;8.40;;
78205;SDS011;67480;48.920;12.880;2023-12-28T11:09:43;10.07;;;7.70;;
78205;SDS011;67480;48.920;12.880;2023-12-28T11:12:09;10.40;;;8.23;;
78205;SDS011;67480;48.920;12.880;2023-12-28T11:14:36;11.10;;;8.65;;
78205;SDS011;67480;48.920;12.880;2023-12-28T11:17:05;12.60;;;8.90;;
78205;SDS011;67480;48.920;12.880;2023-12-28T11:19:31;11.27;;;8.90;;
78205;SDS011;67480;48.920;12.880;2023-12-28T11:21:58;12.48;;;9.60;;
78205;SDS011;67480;48.920;12.880;2023-12-28T11:24:27;10.43;;;8.50;;
78205;SDS011;67480;48.920;12.880;2023-12-28T11:26:54;10.60;;;8.38;;
78205;SDS011;67480;48.920;12.880;2023-12-28T11:29:20;10.93;;;8.48;;
78205;SDS011;67480;48.920;12.880;2023-12-28T11:31:57;10.80;;;8.07;;
78205;SDS011;67480;48.920;12.880;2023-12-28T11:34:31;9.88;;;7.60;;
78205;SDS011;67480;48.920;12.880;2023-12-28T11:37:00;9.80;;;7.50;;
78205;SDS011;67480;48.920;12.880;2023-12-28T11:41:59;10.65;;;8.05;;
78205;SDS011;67480;48.920;12.880;2023-12-28T11:44:28;10.15;;;8.45;;
78205;SDS011;67480;48.920;12.880;2023-12-28T11:46:54;9.70;;;8.60;;
78205;SDS011;67480;48.920;12.880;2023-12-28T11:49:24;10.80;;;8.60;;
78205;SDS011;67480;48.920;12.880;2023-12-28T11:51:56;10.35;;;8.60;;
78205;SDS011;67480;48.920;12.880;2023-12-28T11:54:25;9.48;;;8.25;;
78205;SDS011;67480;48.920;12.880;2023-12-28T11:56:51;10.20;;;8.45;;
78205;SDS011;67480;48.920;12.880;2023-12-28T11:59:18;10.82;;;8.88;;
78205;SDS011;67480;48.920;12.880;2023-12-28T12:01:48;10.52;;;8.35;;
78205;SDS011;67480;48.920;12.880;2023-12-28T12:04:18;12.68;;;9.05;;
78205;SDS011;67480;48.920;12.880;2023-12-28T12:06:44;10.68;;;9.07;;
78205;SDS011;67480;48.920;12.880;2023-12-28T12:09:11;11.50;;;9.18;;
78205;SDS011;67480;48.920;12.880;2023-12-28T12:11:37;11.65;;;8.90;;
78205;SDS011;67480;48.920;12.880;2023-12-28T12:14:03;9.13;;;8.02;;
78205;SDS011;67480;48.920;12.880;2023-12-28T12:16:34;10.88;;;8.07;;
78205;SDS011;67480;48.920;12.880;2023-12-28T12:19:00;9.43;;;7.90;;
78205;SDS011;67480;48.920;12.880;2023-12-28T12:21:26;9.52;;;7.63;;
78205;SDS011;67480;48.920;12.880;2023-12-28T12:23:52;9.07;;;7.95;;
78205;SDS011;67480;48.920;12.880;2023-12-28T12:26:17;12.23;;;8.68;;
78205;SDS011;67480;48.920;12.880;2023-12-28T12:28:43;10.23;;;8.32;;
78205;SDS011;67480;48.920;12.880;2023-12-28T12:31:09;10.27;;;8.40;;
78205;SDS011;67480;48.920;12.880;2023-12-28T12:33:35;14.65;;;8.65;;
78205;SDS011;67480;48.920;12.880;2023-12-28T12:36:02;7.90;;;6.25;;
78205;SDS011;67480;48.920;12.880;2023-12-28T12:38:28;7.38;;;6.57;;
78205;SDS011;67480;48.920;12.880;2023-12-28T12:40:53;9.38;;;6.35;;
78205;SDS011;67480;48.920;12.880;2023-12-28T12:43:19;7.47;;;6.30;;
78205;SDS011;67480;48.920;12.880;2023-12-28T12:45:44;9.35;;;7.22;;
78205;SDS011;67480;48.920;12.880;2023-12-28T12:48:11;9.15;;;6.53;;
78205;SDS011;67480;48.920;12.880;2023-12-28T12:50:36;6.53;;;5.10;;
78205;SDS011;67480;48.920;12.880;2023-12-28T12:53:04;5.90;;;4.22;;
78205;SDS011;67480;48.920;12.880;2023-12-28T12:55:30;7.68;;;5.82;;
78205;SDS011;67480;48.920;12.880;2023-12-28T12:57:55;6.47;;;5.88;;
78205;SDS011;67480;48.920;12.880;2023-12-28T13:00:21;7.35;;;6.13;;
78205;SDS011;67480;48.920;12.880;2023-12-28T13:02:48;11.20;;;7.13;;
78205;SDS011;67480;48.920;12.880;2023-12-28T13:05:15;7.57;;;5.63;;
78205;SDS011;67480;48.920;12.880;2023-12-28T13:07:42;5.63;;;4.63;;
78205;SDS011;67480;48.920;12.880;2023-12-28T13:10:07;6.50;;;5.30;;
78205;SDS011;67480;48.920;12.880;2023-12-28T13:12:33;5.35;;;4.30;;
78205;SDS011;67480;48.920;12.880;2023-12-28T13:14:58;6.93;;;5.40;;
78205;SDS011;67480;48.920;12.880;2023-12-28T13:17:23;6.35;;;5.03;;
78205;SDS011;67480;48.920;12.880;2023-12-28T13:19:49;5.75;;;4.45;;
78205;SDS011;67480;48.920;12.880;2023-12-28T13:22:14;5.20;;;4.72;;
78205;SDS011;67480;48.920;12.880;2023-12-28T13:24:40;6.75;;;4.55;;
78205;SDS011;67480;48.920;12.880;2023-12-28T13:27:05;5.25;;;4.18;;
78205;SDS011;67480;48.920;12.880;2023-12-28T13:29:30;5.07;;;4.18;;
78205;SDS011;67480;48.920;12.880;2023-12-28T13:31:56;4.22;;;3.85;;
78205;SDS011;67480;48.920;12.880;2023-12-28T13:34:23;4.13;;;3.45;;
78205;SDS011;67480;48.920;12.880;2023-12-28T13:36:48;4.47;;;4.00;;
78205;SDS011;67480;48.920;12.880;2023-12-28T13:39:14;5.05;;;3.45;;
78205;SDS011;67480;48.920;12.880;2023-12-28T13:41:42;4.45;;;3.72;;
78205;SDS011;67480;48.920;12.880;2023-12-28T13:44:08;4.00;;;3.28;;
78205;SDS011;67480;48.920;12.880;2023-12-28T13:46:37;4.95;;;3.30;;
78205;SDS011;67480;48.920;12.880;2023-12-28T13:49:03;4.78;;;3.40;;
78205;SDS011;67480;48.920;12.880;2023-12-28T13:51:29;5.18;;;3.35;;
78205;SDS011;67480;48.920;12.880;2023-12-28T13:53:57;8.18;;;3.45;;
78205;SDS011;67480;48.920;12.880;2023-12-28T13:56:23;4.07;;;3.20;;
78205;SDS011;67480;48.920;12.880;2023-12-28T13:58:48;3.70;;;3.30;;
78205;SDS011;67480;48.920;12.880;2023-12-28T14:01:14;4.75;;;3.72;;
78205;SDS011;67480;48.920;12.880;2023-12-28T14:03:39;4.30;;;3.45;;
78205;SDS011;67480;48.920;12.880;2023-12-28T14:06:05;4.47;;;2.70;;
78205;SDS011;67480;48.920;12.880;2023-12-28T14:08:30;3.67;;;3.00;;
78205;SDS011;67480;48.920;12.880;2023-12-28T14:10:55;3.35;;;3.00;;
78205;SDS011;67480;48.920;12.880;2023-12-28T14:13:21;4.68;;;3.00;;
78205;SDS011;67480;48.920;12.880;2023-12-28T14:15:47;5.32;;;3.30;;
78205;SDS011;67480;48.920;12.880;2023-12-28T14:18:12;4.78;;;3.75;;
78205;SDS011;67480;48.920;12.880;2023-12-28T14:20:38;4.00;;;3.25;;
78205;SDS011;67480;48.920;12.880;2023-12-28T14:23:03;3.83;;;3.10;;
78205;SDS011;67480;48.920;12.880;2023-12-28T14:25:29;5.72;;;2.90;;
78205;SDS011;67480;48.920;12.880;2023-12-28T14:27:54;3.53;;;2.55;;
78205;SDS011;67480;48.920;12.880;2023-12-28T14:30:20;3.15;;;2.72;;
78205;SDS011;67480;48.920;12.880;2023-12-28T14:32:46;6.43;;;3.15;;
78205;SDS011;67480;48.920;12.880;2023-12-28T14:35:12;3.63;;;3.17;;
78205;SDS011;67480;48.920;12.880;2023-12-28T14:37:40;3.20;;;2.60;;
78205;SDS011;67480;48.920;12.880;2023-12-28T14:40:06;3.97;;;2.60;;
78205;SDS011;67480;48.920;12.880;2023-12-28T14:42:32;3.22;;;2.90;;
78205;SDS011;67480;48.920;12.880;2023-12-28T14:44:59;3.30;;;2.65;;
78205;SDS011;67480;48.920;12.880;2023-12-28T14:47:26;3.83;;;2.92;;
78205;SDS011;67480;48.920;12.880;2023-12-28T14:49:52;2.92;;;2.63;;
78205;SDS011;67480;48.920;12.880;2023-12-28T14:52:20;5.43;;;2.80;;
78205;SDS011;67480;48.920;12.880;2023-12-28T14:54:46;2.72;;;2.50;;
78205;SDS011;67480;48.920;12.880;2023-12-28T14:57:11;3.22;;;2.90;;